Time;durP1;ratioP1;P1;durP2;ratioP2;P2;SDS_P1;SDS_P2;PMS_P1;PMS_P2;Temp;Humidity;BMP_temperature;BMP_pressure;BME280_temperature;BME280_humidity;BME280_pressure;Samples;Min_cycle;Max_cycle;Signal;HPM_P1;HPM_P2
2024/02/15 00:01:38;;;;;;;27.77;6.03;;;;;;;;;;5073284;28;20012;-33
2024/02/15 00:04:04;;;;;;;22.75;6.65;;;;;;;;;;5073545;28;20016;-32
2024/02/15 00:06:29;;;;;;;21.07;6.37;;;;;;;;;;5073608;28;20128;-32
2024/02/15 00:08:54;;;;;;;30.20;6.90;;;;;;;;;;5078020;28;20312;-32
2024/02/15 00:11:19;;;;;;;24.70;7.73;;;;;;;;;;5077887;28;20259;-32
2024/02/15 00:13:44;;;;;;;26.55;8.00;;;;;;;;;;5077610;28;20349;-33
2024/02/15 00:16:13;;;;;;;16.70;7.40;;;;;;;;;;5077265;28;20016;-32
2024/02/15 00:18:39;;;;;;;22.38;7.97;;;;;;;;;;5077530;28;20404;-32
2024/02/15 00:21:04;;;;;;;24.30;7.60;;;;;;;;;;5077437;28;20025;-32
2024/02/15 00:23:30;;;;;;;16.30;6.70;;;;;;;;;;5077202;28;20020;-32
2024/02/15 00:25:55;;;;;;;25.98;6.97;;;;;;;;;;5077119;28;20272;-32
2024/02/15 00:28:21;;;;;;;21.77;6.90;;;;;;;;;;5077014;28;20017;-32
2024/02/15 00:30:46;;;;;;;16.30;6.15;;;;;;;;;;5077366;28;20013;-32
2024/02/15 00:33:11;;;;;;;19.20;6.30;;;;;;;;;;5077001;28;20104;-32
2024/02/15 00:35:36;;;;;;;15.20;6.05;;;;;;;;;;5077268;28;20021;-31
2024/02/15 00:38:02;;;;;;;19.65;5.95;;;;;;;;;;5077197;28;20026;-32
2024/02/15 00:40:28;;;;;;;17.25;5.88;;;;;;;;;;5077400;28;20386;-32
2024/02/15 00:42:53;;;;;;;16.65;5.55;;;;;;;;;;5076658;28;20016;-32
2024/02/15 00:45:18;;;;;;;14.82;5.50;;;;;;;;;;5077322;28;20070;-29
2024/02/15 00:47:43;;;;;;;20.42;5.63;;;;;;;;;;5077258;28;20097;-29
2024/02/15 00:50:09;;;;;;;15.55;5.60;;;;;;;;;;5077721;28;20096;-29
2024/02/15 00:52:35;;;;;;;14.93;5.72;;;;;;;;;;5076819;28;20048;-29
2024/02/15 00:55:00;;;;;;;17.73;5.37;;;;;;;;;;5076453;28;20482;-29
2024/02/15 00:57:25;;;;;;;29.02;6.32;;;;;;;;;;5076727;28;20025;-29
2024/02/15 00:59:51;;;;;;;15.83;5.57;;;;;;;;;;5076434;28;20028;-29
2024/02/15 01:02:17;;;;;;;16.92;5.78;;;;;;;;;;5076571;28;20642;-29
2024/02/15 01:04:45;;;;;;;22.58;5.75;;;;;;;;;;5076376;28;20017;-29
2024/02/15 01:07:10;;;;;;;16.77;6.03;;;;;;;;;;5076233;28;20044;-29
2024/02/15 01:09:35;;;;;;;18.15;5.95;;;;;;;;;;5076220;28;20043;-29
2024/02/15 01:12:03;;;;;;;23.20;5.70;;;;;;;;;;5076194;28;20103;-29
2024/02/15 01:14:30;;;;;;;15.57;5.03;;;;;;;;;;5076430;28;20255;-29
2024/02/15 01:16:55;;;;;;;16.33;5.20;;;;;;;;;;5076426;28;20103;-29
2024/02/15 01:19:20;;;;;;;14.90;5.50;;;;;;;;;;5075419;28;20075;-29
2024/02/15 01:21:46;;;;;;;15.57;5.87;;;;;;;;;;5076060;28;20021;-29
2024/02/15 01:24:11;;;;;;;13.90;5.25;;;;;;;;;;5076235;28;20247;-29
2024/02/15 01:26:36;;;;;;;13.43;5.20;;;;;;;;;;5076026;28;20376;-29
2024/02/15 01:29:03;;;;;;;11.80;5.27;;;;;;;;;;5076524;28;20261;-29
2024/02/15 01:31:28;;;;;;;13.95;5.75;;;;;;;;;;5076238;28;20021;-30
2024/02/15 01:33:53;;;;;;;13.20;6.57;;;;;;;;;;5075896;28;20154;-29
2024/02/15 01:36:18;;;;;;;20.37;7.03;;;;;;;;;;5076504;28;20259;-29
2024/02/15 01:38:44;;;;;;;14.55;6.07;;;;;;;;;;5075712;28;20270;-29
2024/02/15 01:41:10;;;;;;;14.52;6.20;;;;;;;;;;5074431;28;20032;-29
2024/02/15 01:43:35;;;;;;;16.38;6.70;;;;;;;;;;5075708;28;20422;-29
2024/02/15 01:46:03;;;;;;;16.10;6.72;;;;;;;;;;5075591;28;20021;-29
2024/02/15 01:48:29;;;;;;;18.52;7.53;;;;;;;;;;5076112;28;20460;-29
2024/02/15 01:50:54;;;;;;;18.20;7.20;;;;;;;;;;5076003;28;20024;-28
2024/02/15 01:53:20;;;;;;;21.13;7.30;;;;;;;;;;5075518;28;20024;-29
2024/02/15 01:55:46;;;;;;;17.45;7.20;;;;;;;;;;5075944;28;20379;-29
2024/02/15 01:58:11;;;;;;;19.25;7.68;;;;;;;;;;5075655;28;20107;-29
2024/02/15 02:00:39;;;;;;;14.40;7.17;;;;;;;;;;5075590;28;20063;-29
2024/02/15 02:03:04;;;;;;;23.23;7.13;;;;;;;;;;5075214;28;20279;-28
2024/02/15 02:05:30;;;;;;;17.73;7.82;;;;;;;;;;5075237;28;20089;-28
2024/02/15 02:07:59;;;;;;;17.10;7.43;;;;;;;;;;5075024;28;20677;-29
2024/02/15 02:10:24;;;;;;;17.08;7.75;;;;;;;;;;5075121;28;20012;-28
2024/02/15 02:12:50;;;;;;;19.52;8.70;;;;;;;;;;5075037;28;20021;-28
2024/02/15 02:15:15;;;;;;;15.70;8.18;;;;;;;;;;5075030;28;20517;-29
2024/02/15 02:17:40;;;;;;;17.42;8.25;;;;;;;;;;5074980;28;20032;-29
2024/02/15 02:20:08;;;;;;;16.67;8.55;;;;;;;;;;5074885;28;20520;-28
2024/02/15 02:22:33;;;;;;;19.88;8.55;;;;;;;;;;5074763;28;20021;-29
2024/02/15 02:25:03;;;;;;;18.60;8.70;;;;;;;;;;5075355;28;20023;-28
2024/02/15 02:27:28;;;;;;;23.08;9.05;;;;;;;;;;5075035;28;20024;-29
2024/02/15 02:29:53;;;;;;;23.25;9.00;;;;;;;;;;5072823;28;20012;-28
2024/02/15 02:32:18;;;;;;;20.67;8.80;;;;;;;;;;5074302;28;20028;-28
2024/02/15 02:34:44;;;;;;;22.00;8.75;;;;;;;;;;5075193;28;20358;-30
2024/02/15 02:37:09;;;;;;;15.85;8.48;;;;;;;;;;5074910;28;20412;-28
2024/02/15 02:39:34;;;;;;;19.98;8.63;;;;;;;;;;5074819;28;20043;-28
2024/02/15 02:42:00;;;;;;;18.25;8.50;;;;;;;;;;5074655;28;20468;-28
2024/02/15 02:44:25;;;;;;;17.70;9.00;;;;;;;;;;5074451;28;20024;-28
2024/02/15 02:46:50;;;;;;;19.13;9.02;;;;;;;;;;5074696;28;20346;-29
2024/02/15 02:49:15;;;;;;;19.33;8.55;;;;;;;;;;5074597;28;20430;-29
2024/02/15 02:51:41;;;;;;;21.38;10.18;;;;;;;;;;5074251;28;20519;-29
2024/02/15 02:54:07;;;;;;;21.45;9.82;;;;;;;;;;5074793;28;20020;-28
2024/02/15 02:56:33;;;;;;;22.30;9.80;;;;;;;;;;5074737;28;20056;-29
2024/02/15 02:58:58;;;;;;;17.23;9.48;;;;;;;;;;5074485;28;20099;-28
2024/02/15 03:01:26;;;;;;;24.08;9.93;;;;;;;;;;5074522;28;20425;-28
2024/02/15 03:03:55;;;;;;;23.67;10.43;;;;;;;;;;5074051;28;20012;-28
2024/02/15 03:06:20;;;;;;;19.45;10.00;;;;;;;;;;5074017;28;20076;-28
2024/02/15 03:08:45;;;;;;;24.13;10.37;;;;;;;;;;5073989;28;20059;-28
2024/02/15 03:11:12;;;;;;;18.10;10.20;;;;;;;;;;5073848;28;20721;-29
2024/02/15 03:13:37;;;;;;;21.27;9.82;;;;;;;;;;5074149;28;20016;-29
2024/02/15 03:16:04;;;;;;;21.35;10.25;;;;;;;;;;5073844;28;20490;-28
2024/02/15 03:18:29;;;;;;;24.25;10.00;;;;;;;;;;5073729;28;20074;-28
2024/02/15 03:20:54;;;;;;;22.27;9.53;;;;;;;;;;5074344;28;20021;-28
2024/02/15 03:23:19;;;;;;;21.03;9.07;;;;;;;;;;5073748;28;20780;-28
2024/02/15 03:25:44;;;;;;;20.67;8.68;;;;;;;;;;5074051;28;20259;-29
2024/02/15 03:28:10;;;;;;;21.00;9.13;;;;;;;;;;5073728;28;20025;-29
2024/02/15 03:30:35;;;;;;;20.02;8.30;;;;;;;;;;5073939;28;20016;-28
2024/02/15 03:33:00;;;;;;;18.92;8.38;;;;;;;;;;5073691;28;20051;-29
2024/02/15 03:35:28;;;;;;;20.88;8.05;;;;;;;;;;5074165;28;20020;-29
2024/02/15 03:37:53;;;;;;;17.95;7.65;;;;;;;;;;5073829;28;20483;-29
2024/02/15 03:40:19;;;;;;;17.37;8.40;;;;;;;;;;5073609;28;20021;-28
2024/02/15 03:42:45;;;;;;;21.30;7.70;;;;;;;;;;5073095;28;20289;-28
2024/02/15 03:45:10;;;;;;;18.45;8.07;;;;;;;;;;5073511;28;20020;-28
2024/02/15 03:47:36;;;;;;;18.95;7.32;;;;;;;;;;5073762;28;20069;-28
2024/02/15 03:50:02;;;;;;;14.65;7.80;;;;;;;;;;5073453;28;20016;-29
2024/02/15 03:52:27;;;;;;;15.38;6.88;;;;;;;;;;5073668;28;20031;-29
2024/02/15 03:54:53;;;;;;;21.90;7.63;;;;;;;;;;5073703;28;20027;-29
2024/02/15 03:57:20;;;;;;;15.68;7.32;;;;;;;;;;5073701;28;20468;-29
2024/02/15 03:59:50;;;;;;;19.13;6.95;;;;;;;;;;5073641;28;20031;-29
2024/02/15 04:02:15;;;;;;;21.92;6.93;;;;;;;;;;5073562;28;20479;-29
2024/02/15 04:04:46;;;;;;;19.00;6.93;;;;;;;;;;5073276;28;20025;-29
2024/02/15 04:07:11;;;;;;;15.23;6.47;;;;;;;;;;5073133;28;20279;-29
2024/02/15 04:09:38;;;;;;;17.85;6.78;;;;;;;;;;5073581;28;20052;-29
2024/02/15 04:12:03;;;;;;;18.00;6.53;;;;;;;;;;5073251;28;20070;-29
2024/02/15 04:14:28;;;;;;;17.42;6.68;;;;;;;;;;5073478;28;20020;-29
2024/02/15 04:16:53;;;;;;;18.70;6.67;;;;;;;;;;5073213;28;20069;-29
2024/02/15 04:19:22;;;;;;;14.40;6.30;;;;;;;;;;5073779;28;20254;-29
2024/02/15 04:21:47;;;;;;;19.25;6.45;;;;;;;;;;5073025;28;20314;-30
2024/02/15 04:24:12;;;;;;;13.98;6.28;;;;;;;;;;5073681;28;20087;-29
2024/02/15 04:26:37;;;;;;;13.48;6.68;;;;;;;;;;5073323;28;20066;-29
2024/02/15 04:29:03;;;;;;;20.52;6.97;;;;;;;;;;5073600;28;20019;-30
2024/02/15 04:31:28;;;;;;;17.23;6.28;;;;;;;;;;5073297;28;20052;-29
2024/02/15 04:33:54;;;;;;;18.85;6.85;;;;;;;;;;5072948;28;20356;-29
2024/02/15 04:36:23;;;;;;;21.23;6.93;;;;;;;;;;5073256;28;20024;-29
2024/02/15 04:38:50;;;;;;;14.57;6.80;;;;;;;;;;5073257;28;20074;-30
2024/02/15 04:41:18;;;;;;;17.60;6.85;;;;;;;;;;5072841;28;20052;-28
2024/02/15 04:43:45;;;;;;;22.23;6.57;;;;;;;;;;5073203;28;20491;-30
2024/02/15 04:46:10;;;;;;;17.42;7.30;;;;;;;;;;5073704;28;20106;-29
2024/02/15 04:48:35;;;;;;;16.97;6.97;;;;;;;;;;5073137;28;20401;-29
2024/02/15 04:51:01;;;;;;;18.37;6.43;;;;;;;;;;5073398;28;20343;-29
2024/02/15 04:53:26;;;;;;;25.92;7.32;;;;;;;;;;5073452;28;20521;-29
2024/02/15 04:55:51;;;;;;;18.57;6.90;;;;;;;;;;5076562;28;20078;-31
2024/02/15 04:58:17;;;;;;;24.50;7.53;;;;;;;;;;5076775;28;20255;-29
2024/02/15 05:00:43;;;;;;;18.85;6.97;;;;;;;;;;5076380;28;20103;-29
2024/02/15 05:03:08;;;;;;;18.10;7.85;;;;;;;;;;5076347;28;20036;-29
2024/02/15 05:05:33;;;;;;;21.37;7.63;;;;;;;;;;5076438;28;20048;-30
2024/02/15 05:08:01;;;;;;;18.33;7.75;;;;;;;;;;5076197;28;20041;-29
2024/02/15 05:10:26;;;;;;;20.08;7.80;;;;;;;;;;5076261;28;20107;-29
2024/02/15 05:12:53;;;;;;;15.43;7.60;;;;;;;;;;5076411;28;20108;-29
2024/02/15 05:15:22;;;;;;;19.00;7.95;;;;;;;;;;5076545;28;20029;-29
2024/02/15 05:17:47;;;;;;;17.10;7.82;;;;;;;;;;5076378;28;20368;-29
2024/02/15 05:20:13;;;;;;;22.17;8.20;;;;;;;;;;5076084;28;20021;-29
2024/02/15 05:22:39;;;;;;;16.77;8.10;;;;;;;;;;5075941;28;20344;-29
2024/02/15 05:25:05;;;;;;;14.48;8.38;;;;;;;;;;5076286;28;20044;-29
2024/02/15 05:27:31;;;;;;;15.02;7.70;;;;;;;;;;5075909;28;20099;-30
2024/02/15 05:29:56;;;;;;;22.60;8.93;;;;;;;;;;5076182;28;20040;-30
2024/02/15 05:32:21;;;;;;;19.00;8.55;;;;;;;;;;5075910;28;20016;-29
2024/02/15 05:34:47;;;;;;;17.30;8.73;;;;;;;;;;5076422;28;20020;-29
2024/02/15 05:37:12;;;;;;;17.00;8.63;;;;;;;;;;5076065;28;20784;-29
2024/02/15 05:39:39;;;;;;;20.05;9.25;;;;;;;;;;5076365;28;20103;-29
2024/02/15 05:42:04;;;;;;;17.83;8.90;;;;;;;;;;5075590;28;20025;-30
2024/02/15 05:44:30;;;;;;;18.75;8.65;;;;;;;;;;5075928;28;20070;-29
2024/02/15 05:46:56;;;;;;;21.05;9.93;;;;;;;;;;5075920;28;20013;-29
2024/02/15 05:49:23;;;;;;;19.52;9.02;;;;;;;;;;5075633;28;20052;-30
2024/02/15 05:51:48;;;;;;;19.73;9.13;;;;;;;;;;5075520;28;20008;-29
2024/02/15 05:54:14;;;;;;;19.42;9.00;;;;;;;;;;5075783;28;20024;-33
2024/02/15 05:56:39;;;;;;;16.40;8.60;;;;;;;;;;5075965;28;20028;-35
2024/02/15 05:59:10;;;;;;;18.97;8.90;;;;;;;;;;5076028;28;20024;-36
2024/02/15 06:01:35;;;;;;;17.10;9.23;;;;;;;;;;5075270;28;20286;-30
2024/02/15 06:04:00;;;;;;;17.98;9.77;;;;;;;;;;5075246;28;20075;-30
2024/02/15 06:06:26;;;;;;;22.13;9.63;;;;;;;;;;5075130;28;20052;-29
2024/02/15 06:08:51;;;;;;;16.83;9.52;;;;;;;;;;5076010;28;20718;-30
2024/02/15 06:11:22;;;;;;;21.70;9.88;;;;;;;;;;5075073;28;20108;-30
2024/02/15 06:13:48;;;;;;;19.38;9.75;;;;;;;;;;5075004;28;20020;-29
2024/02/15 06:16:13;;;;;;;18.77;9.77;;;;;;;;;;5075076;28;20074;-30
2024/02/15 06:18:38;;;;;;;18.30;10.13;;;;;;;;;;5075560;28;20052;-29
2024/02/15 06:21:03;;;;;;;22.25;11.55;;;;;;;;;;5075255;28;20779;-31
2024/02/15 06:23:29;;;;;;;22.08;10.10;;;;;;;;;;5074844;28;20421;-30
2024/02/15 06:25:54;;;;;;;19.75;10.98;;;;;;;;;;5075676;28;20352;-33
2024/02/15 06:42:01;;;;;;;19.50;11.27;;;;;;;;;;5075231;28;20035;-29
2024/02/15 06:44:26;;;;;;;18.10;11.00;;;;;;;;;;5074761;28;20379;-30
2024/02/15 06:46:51;;;;;;;21.48;10.93;;;;;;;;;;5074429;28;20448;-30
2024/02/15 06:49:16;;;;;;;19.57;11.47;;;;;;;;;;5074739;28;20016;-34
2024/02/15 06:51:42;;;;;;;23.63;11.45;;;;;;;;;;5074404;28;20251;-33
2024/02/15 06:54:07;;;;;;;18.35;11.23;;;;;;;;;;5074370;28;20020;-30
2024/02/15 06:56:36;;;;;;;18.85;10.82;;;;;;;;;;5074541;28;20024;-31
2024/02/15 06:59:01;;;;;;;17.67;11.07;;;;;;;;;;5073761;28;20036;-30
2024/02/15 07:01:26;;;;;;;19.75;10.85;;;;;;;;;;5074371;28;20017;-32
2024/02/15 07:03:51;;;;;;;22.93;11.50;;;;;;;;;;5074292;28;20016;-30
2024/02/15 07:06:16;;;;;;;19.50;11.27;;;;;;;;;;5073909;28;20282;-30
2024/02/15 07:08:42;;;;;;;19.83;10.70;;;;;;;;;;5073961;28;20341;-31
2024/02/15 07:11:09;;;;;;;16.63;10.93;;;;;;;;;;5074121;28;20017;-30
2024/02/15 07:13:34;;;;;;;19.42;10.35;;;;;;;;;;5074176;28;20483;-30
2024/02/15 07:15:59;;;;;;;17.73;10.98;;;;;;;;;;5073611;28;20020;-30
2024/02/15 07:18:25;;;;;;;20.43;11.10;;;;;;;;;;5073580;28;20070;-30
2024/02/15 07:20:50;;;;;;;16.70;9.98;;;;;;;;;;5074027;28;20753;-30
2024/02/15 07:23:15;;;;;;;14.20;9.60;;;;;;;;;;5074191;28;20111;-30
2024/02/15 07:25:41;;;;;;;17.33;9.33;;;;;;;;;;5073783;28;20031;-30
2024/02/15 07:28:08;;;;;;;14.93;9.20;;;;;;;;;;5073702;28;20251;-30
2024/02/15 07:30:34;;;;;;;12.18;8.73;;;;;;;;;;5073911;28;20016;-30
2024/02/15 07:32:59;;;;;;;12.93;8.75;;;;;;;;;;5074003;28;20046;-30
2024/02/15 07:35:25;;;;;;;13.75;8.30;;;;;;;;;;5073925;28;20016;-31
2024/02/15 07:37:58;;;;;;;11.55;8.27;;;;;;;;;;5073502;28;20377;-30
2024/02/15 07:40:27;;;;;;;12.07;8.13;;;;;;;;;;5073911;28;20028;-30
2024/02/15 07:42:52;;;;;;;11.38;7.75;;;;;;;;;;5073724;28;20469;-30
2024/02/15 07:45:17;;;;;;;12.40;7.47;;;;;;;;;;5073519;28;20055;-30
2024/02/15 07:47:43;;;;;;;13.20;7.17;;;;;;;;;;5074014;28;20247;-31
2024/02/15 07:50:09;;;;;;;12.07;6.72;;;;;;;;;;5073406;28;20266;-30
2024/02/15 07:52:34;;;;;;;11.32;6.90;;;;;;;;;;5073634;28;20028;-30
2024/02/15 07:55:01;;;;;;;10.70;6.70;;;;;;;;;;5073948;28;20035;-30
2024/02/15 07:57:26;;;;;;;9.48;6.60;;;;;;;;;;5073329;28;20029;-30
2024/02/15 07:59:52;;;;;;;9.60;5.70;;;;;;;;;;5073310;28;20028;-30
2024/02/15 08:02:22;;;;;;;11.43;6.10;;;;;;;;;;5073236;28;20024;-30
2024/02/15 08:04:48;;;;;;;8.30;5.60;;;;;;;;;;5073528;28;20269;-31
2024/02/15 08:07:14;;;;;;;11.55;6.18;;;;;;;;;;5072993;28;20430;-30
2024/02/15 08:09:39;;;;;;;8.93;5.70;;;;;;;;;;5073469;28;20025;-30
2024/02/15 08:12:04;;;;;;;7.37;5.23;;;;;;;;;;5073120;28;20032;-30
2024/02/15 08:14:31;;;;;;;8.02;4.90;;;;;;;;;;5073093;28;20267;-30
2024/02/15 08:16:56;;;;;;;6.93;5.18;;;;;;;;;;5073166;28;20018;-30
2024/02/15 08:19:22;;;;;;;8.70;4.50;;;;;;;;;;5071923;28;20039;-30
2024/02/15 08:21:50;;;;;;;8.23;4.70;;;;;;;;;;5073375;28;20460;-30
2024/02/15 08:24:16;;;;;;;11.45;4.82;;;;;;;;;;5073188;28;20013;-30
2024/02/15 08:26:42;;;;;;;8.95;4.97;;;;;;;;;;5073302;28;20013;-30
2024/02/15 08:29:07;;;;;;;5.53;4.00;;;;;;;;;;5074472;28;20023;-30
2024/02/15 08:31:33;;;;;;;6.68;4.28;;;;;;;;;;5077233;28;20255;-30
2024/02/15 08:34:00;;;;;;;7.15;4.28;;;;;;;;;;5076789;28;20040;-30
2024/02/15 08:36:25;;;;;;;6.65;3.88;;;;;;;;;;5076942;28;20024;-30
2024/02/15 08:38:50;;;;;;;5.20;3.53;;;;;;;;;;5077526;28;20021;-30
2024/02/15 08:41:18;;;;;;;5.93;3.87;;;;;;;;;;5077096;28;20598;-30
2024/02/15 08:43:43;;;;;;;5.40;3.53;;;;;;;;;;5076573;28;20270;-31
2024/02/15 08:46:08;;;;;;;5.78;3.83;;;;;;;;;;5077276;28;20078;-30
2024/02/15 08:48:34;;;;;;;6.18;4.07;;;;;;;;;;5076681;28;20103;-30
2024/02/15 08:51:00;;;;;;;6.72;3.97;;;;;;;;;;5076577;28;20028;-30
2024/02/15 08:53:26;;;;;;;7.27;4.20;;;;;;;;;;5076475;28;20020;-30
2024/02/15 08:55:52;;;;;;;6.47;4.15;;;;;;;;;;5077083;28;20255;-30
2024/02/15 08:58:18;;;;;;;7.60;4.82;;;;;;;;;;5076763;28;20021;-30
2024/02/15 09:00:45;;;;;;;6.68;4.07;;;;;;;;;;5076459;28;20028;-30
2024/02/15 09:03:10;;;;;;;6.07;4.25;;;;;;;;;;5076621;28;20016;-30
2024/02/15 09:05:35;;;;;;;8.38;4.65;;;;;;;;;;5076597;28;20528;-30
2024/02/15 09:08:00;;;;;;;6.67;4.10;;;;;;;;;;5076007;28;20048;-30
2024/02/15 09:10:27;;;;;;;7.03;4.30;;;;;;;;;;5076248;28;20352;-30
2024/02/15 09:12:52;;;;;;;6.53;4.47;;;;;;;;;;5076317;28;20259;-30
2024/02/15 09:15:17;;;;;;;6.77;4.50;;;;;;;;;;5076046;28;20023;-30
2024/02/15 09:17:44;;;;;;;7.28;4.20;;;;;;;;;;5076330;28;20262;-30
2024/02/15 09:20:14;;;;;;;8.02;4.50;;;;;;;;;;5076057;28;20456;-30
2024/02/15 09:22:40;;;;;;;8.02;4.40;;;;;;;;;;5075955;28;20016;-30
2024/02/15 09:25:05;;;;;;;8.20;4.30;;;;;;;;;;5075971;28;20025;-30
2024/02/15 09:27:30;;;;;;;7.22;4.35;;;;;;;;;;5076434;28;20025;-30
2024/02/15 09:29:55;;;;;;;11.50;4.47;;;;;;;;;;5076188;28;20029;-30
2024/02/15 09:32:22;;;;;;;11.25;4.90;;;;;;;;;;5075938;28;20663;-30
2024/02/15 09:34:47;;;;;;;8.48;4.15;;;;;;;;;;5075812;28;20029;-30
2024/02/15 09:37:14;;;;;;;8.10;4.78;;;;;;;;;;5075831;28;20028;-30
2024/02/15 09:39:39;;;;;;;12.20;4.90;;;;;;;;;;5075443;28;20476;-30
2024/02/15 09:42:04;;;;;;;10.87;4.73;;;;;;;;;;5075938;28;20031;-30
2024/02/15 09:44:29;;;;;;;9.68;4.97;;;;;;;;;;5076067;28;20282;-31
2024/02/15 09:47:03;;;;;;;10.60;4.75;;;;;;;;;;5075631;28;20027;-30
2024/02/15 09:49:29;;;;;;;9.95;4.50;;;;;;;;;;5075572;28;20087;-30
2024/02/15 09:51:55;;;;;;;9.80;4.88;;;;;;;;;;5075655;28;20463;-30
2024/02/15 09:54:22;;;;;;;11.07;4.88;;;;;;;;;;5075518;28;20024;-30
2024/02/15 09:56:49;;;;;;;8.77;4.07;;;;;;;;;;5075788;28;20456;-31
2024/02/15 09:59:14;;;;;;;10.05;4.60;;;;;;;;;;5075955;28;20013;-30
2024/02/15 10:01:40;;;;;;;11.27;4.32;;;;;;;;;;5074034;28;20529;-30
2024/02/15 10:04:07;;;;;;;10.27;5.15;;;;;;;;;;5075596;28;20048;-30
2024/02/15 10:06:32;;;;;;;10.45;4.57;;;;;;;;;;5075535;28;20086;-30
2024/02/15 10:09:17;;;;;;;10.87;4.40;;;;;;;;;;5075681;28;20024;-30
2024/02/15 10:11:54;;;;;;;13.05;4.82;;;;;;;;;;5074974;28;20278;-30
2024/02/15 10:14:21;;;;;;;11.50;4.75;;;;;;;;;;5075390;28;20035;-30
2024/02/15 10:16:46;;;;;;;10.75;5.35;;;;;;;;;;5075229;28;20024;-30
2024/02/15 10:19:12;;;;;;;15.70;5.47;;;;;;;;;;5074953;28;20421;-30
2024/02/15 10:21:38;;;;;;;13.27;5.30;;;;;;;;;;5075075;28;20271;-31
2024/02/15 10:24:05;;;;;;;13.90;6.00;;;;;;;;;;5075049;28;20092;-30
2024/02/15 10:26:30;;;;;;;12.85;6.13;;;;;;;;;;5075054;28;20460;-30
2024/02/15 10:29:08;;;;;;;12.05;6.00;;;;;;;;;;5074768;28;20023;-30
2024/02/15 10:31:33;;;;;;;18.80;5.90;;;;;;;;;;5074945;28;20467;-30
2024/02/15 10:34:03;;;;;;;12.90;5.55;;;;;;;;;;5074805;28;20066;-30
2024/02/15 10:36:29;;;;;;;12.13;5.60;;;;;;;;;;5074901;28;20467;-30
2024/02/15 10:39:10;;;;;;;14.77;5.85;;;;;;;;;;5074825;28;20020;-30
2024/02/15 10:41:36;;;;;;;15.02;5.50;;;;;;;;;;5074753;28;20047;-31
2024/02/15 10:44:02;;;;;;;17.75;5.38;;;;;;;;;;5074747;28;20087;-30
2024/02/15 10:46:27;;;;;;;12.68;4.90;;;;;;;;;;5074782;28;20016;-30
2024/02/15 10:48:52;;;;;;;14.85;5.18;;;;;;;;;;5074646;28;20017;-30
2024/02/15 10:51:17;;;;;;;11.87;5.13;;;;;;;;;;5074010;28;20021;-31
2024/02/15 10:53:49;;;;;;;13.55;5.05;;;;;;;;;;5074590;28;20263;-31
2024/02/15 10:56:26;;;;;;;15.48;5.60;;;;;;;;;;5074552;28;20024;-30
2024/02/15 10:59:00;;;;;;;14.40;5.38;;;;;;;;;;5074210;28;20103;-30
2024/02/15 11:01:27;;;;;;;17.48;4.97;;;;;;;;;;5074382;28;20025;-30
2024/02/15 11:04:04;;;;;;;13.75;5.32;;;;;;;;;;5074337;28;20024;-30
2024/02/15 11:06:33;;;;;;;15.93;5.50;;;;;;;;;;5073989;28;20044;-30
2024/02/15 11:08:59;;;;;;;14.23;5.57;;;;;;;;;;5073928;28;20099;-31
2024/02/15 11:11:25;;;;;;;12.73;5.53;;;;;;;;;;5074145;28;20071;-30
2024/02/15 11:14:10;;;;;;;14.52;5.97;;;;;;;;;;5074166;28;20483;-31
2024/02/15 11:16:45;;;;;;;13.40;5.80;;;;;;;;;;5073674;28;20016;-30
2024/02/15 11:19:30;;;;;;;12.07;5.57;;;;;;;;;;5072835;28;20103;-30
2024/02/15 11:21:56;;;;;;;16.15;6.05;;;;;;;;;;5073482;28;20052;-30
2024/02/15 11:24:29;;;;;;;15.13;5.93;;;;;;;;;;5073975;28;20039;-30
2024/02/15 11:26:58;;;;;;;14.48;6.05;;;;;;;;;;5074020;28;20029;-30
2024/02/15 11:29:41;;;;;;;14.68;6.00;;;;;;;;;;5073500;28;20475;-30
2024/02/15 11:32:07;;;;;;;12.75;5.97;;;;;;;;;;5072056;28;20029;-30
2024/02/15 11:34:41;;;;;;;13.48;6.40;;;;;;;;;;5072577;28;20013;-30
2024/02/15 11:37:06;;;;;;;14.23;6.00;;;;;;;;;;5073098;28;20032;-30
2024/02/15 11:39:44;;;;;;;16.73;6.10;;;;;;;;;;5072781;28;20013;-31
2024/02/15 11:42:30;;;;;;;16.00;6.82;;;;;;;;;;5072476;28;20028;-30
2024/02/15 11:45:05;;;;;;;16.30;6.30;;;;;;;;;;5072871;28;20033;-30
2024/02/15 11:47:33;;;;;;;14.10;6.25;;;;;;;;;;5073353;28;20055;-30
2024/02/15 11:49:59;;;;;;;13.45;5.82;;;;;;;;;;5072899;28;20016;-30
2024/02/15 11:52:26;;;;;;;13.35;6.25;;;;;;;;;;5073872;28;20025;-30
2024/02/15 11:54:51;;;;;;;13.30;6.70;;;;;;;;;;5073628;28;20103;-30
2024/02/15 11:57:25;;;;;;;15.07;6.47;;;;;;;;;;5073339;28;20117;-30
2024/02/15 12:18:38;;;;;;;16.00;6.70;;;;;;;;;;5073465;28;20025;-30
2024/02/15 12:19:10;;;;;;;13.23;6.40;;;;;;;;;;5073992;28;20059;-30
2024/02/15 12:21:40;;;;;;;15.35;6.57;;;;;;;;;;5072967;28;20020;-30
2024/02/15 12:24:05;;;;;;;13.93;5.75;;;;;;;;;;5073385;28;20008;-30
2024/02/15 12:26:34;;;;;;;12.25;5.95;;;;;;;;;;5073065;28;20086;-30
2024/02/15 12:29:01;;;;;;;16.00;6.40;;;;;;;;;;5073322;28;20028;-30
2024/02/15 12:31:27;;;;;;;12.27;6.10;;;;;;;;;;5072950;28;20020;-30
2024/02/15 12:34:07;;;;;;;14.35;5.72;;;;;;;;;;5073556;28;20368;-30
2024/02/15 12:36:38;;;;;;;12.20;6.50;;;;;;;;;;5072971;28;20100;-37
2024/02/15 12:39:10;;;;;;;10.38;5.72;;;;;;;;;;5072928;28;20020;-30
2024/02/15 12:41:37;;;;;;;11.27;5.80;;;;;;;;;;5073157;28;20409;-30
2024/02/15 12:44:03;;;;;;;13.60;6.30;;;;;;;;;;5072866;28;20255;-30
2024/02/15 12:46:29;;;;;;;8.70;5.35;;;;;;;;;;5073177;28;20028;-30
2024/02/15 12:49:13;;;;;;;12.13;5.75;;;;;;;;;;5073261;28;20474;-29
2024/02/15 12:51:38;;;;;;;11.18;5.50;;;;;;;;;;5072804;28;20028;-29
2024/02/15 12:54:07;;;;;;;10.00;5.00;;;;;;;;;;5072964;28;20050;-29
2024/02/15 12:56:33;;;;;;;10.80;5.30;;;;;;;;;;5073870;28;20355;-30
2024/02/15 12:58:58;;;;;;;9.67;4.53;;;;;;;;;;5072578;28;20008;-30
2024/02/15 13:01:28;;;;;;;8.82;4.45;;;;;;;;;;5072479;28;20258;-30
2024/02/15 13:03:54;;;;;;;12.93;4.68;;;;;;;;;;5072508;28;20053;-30
2024/02/15 13:06:23;;;;;;;8.63;4.68;;;;;;;;;;5072706;28;20102;-30
2024/02/15 13:08:48;;;;;;;10.25;4.55;;;;;;;;;;5072965;28;20050;-30
2024/02/15 13:11:15;;;;;;;11.23;4.60;;;;;;;;;;5072568;28;20351;-29
2024/02/15 13:13:42;;;;;;;8.50;4.38;;;;;;;;;;5072899;28;20024;-30
2024/02/15 13:16:07;;;;;;;7.22;4.00;;;;;;;;;;5075766;28;20020;-29
2024/02/15 13:18:32;;;;;;;9.77;4.10;;;;;;;;;;5076365;28;20021;-29
2024/02/15 13:20:57;;;;;;;8.50;4.10;;;;;;;;;;5076103;28;20099;-30
2024/02/15 13:23:24;;;;;;;6.93;3.73;;;;;;;;;;5075939;28;20279;-30
2024/02/15 13:25:51;;;;;;;10.18;3.63;;;;;;;;;;5075883;28;20024;-30
2024/02/15 13:28:17;;;;;;;11.57;3.83;;;;;;;;;;5075833;28;20033;-29
2024/02/15 13:30:44;;;;;;;8.93;3.50;;;;;;;;;;5076220;28;20012;-29
2024/02/15 13:33:10;;;;;;;7.75;3.28;;;;;;;;;;5075891;28;20020;-30
2024/02/15 13:35:36;;;;;;;6.90;3.10;;;;;;;;;;5075932;28;20020;-29
2024/02/15 13:38:02;;;;;;;7.28;3.50;;;;;;;;;;5076080;28;20029;-30
2024/02/15 13:40:27;;;;;;;8.70;3.38;;;;;;;;;;5075755;28;20062;-29
2024/02/15 13:42:58;;;;;;;11.68;3.10;;;;;;;;;;5075558;28;20016;-30
2024/02/15 13:45:24;;;;;;;5.85;2.70;;;;;;;;;;5074842;28;20429;-30
2024/02/15 13:47:55;;;;;;;7.55;2.92;;;;;;;;;;5075922;28;20013;-30
2024/02/15 13:50:20;;;;;;;5.90;2.65;;;;;;;;;;5075515;28;20077;-29
2024/02/15 13:52:46;;;;;;;7.73;2.90;;;;;;;;;;5075717;28;20020;-30
2024/02/15 13:55:12;;;;;;;8.52;3.10;;;;;;;;;;5075465;28;20259;-29
2024/02/15 13:57:38;;;;;;;8.77;2.75;;;;;;;;;;5074382;28;20021;-30
2024/02/15 14:00:05;;;;;;;8.85;2.80;;;;;;;;;;5075606;28;20024;-30
2024/02/15 14:02:31;;;;;;;5.78;2.53;;;;;;;;;;5075199;28;20031;-29
2024/02/15 14:04:56;;;;;;;5.68;2.63;;;;;;;;;;5075377;28;20017;-29
2024/02/15 14:07:22;;;;;;;6.13;2.90;;;;;;;;;;5074863;28;20045;-30
2024/02/15 14:09:47;;;;;;;6.53;2.70;;;;;;;;;;5075014;28;20170;-29
2024/02/15 14:12:13;;;;;;;5.77;2.53;;;;;;;;;;5075412;28;20021;-30
2024/02/15 14:14:39;;;;;;;7.68;2.45;;;;;;;;;;5074983;28;20331;-29
2024/02/15 14:17:04;;;;;;;5.90;2.60;;;;;;;;;;5075285;28;20112;-29
2024/02/15 14:19:31;;;;;;;7.90;2.25;;;;;;;;;;5075375;28;20107;-35
2024/02/15 14:21:56;;;;;;;9.65;2.80;;;;;;;;;;5075274;28;20037;-29
2024/02/15 14:24:22;;;;;;;4.50;2.50;;;;;;;;;;5074972;28;20348;-29
2024/02/15 14:26:48;;;;;;;6.93;2.72;;;;;;;;;;5075135;28;20095;-30
2024/02/15 14:29:14;;;;;;;10.10;2.50;;;;;;;;;;5075077;28;20408;-29
2024/02/15 14:34:24;;;;;;;6.28;2.40;;;;;;;;;;5075482;28;20540;-30
2024/02/15 14:36:50;;;;;;;8.63;2.38;;;;;;;;;;5074991;28;20096;-30
2024/02/15 14:39:15;;;;;;;6.13;2.28;;;;;;;;;;5074658;28;20404;-29
2024/02/15 14:41:40;;;;;;;7.65;2.50;;;;;;;;;;5075186;28;20023;-30
2024/02/15 14:44:05;;;;;;;5.82;2.10;;;;;;;;;;5074558;28;20059;-29
2024/02/15 14:46:31;;;;;;;7.87;2.30;;;;;;;;;;5075110;28;20016;-29
2024/02/15 14:48:57;;;;;;;4.67;2.20;;;;;;;;;;5074458;28;20460;-29
2024/02/15 14:51:23;;;;;;;7.15;2.40;;;;;;;;;;5074261;28;20287;-29
2024/02/15 14:53:49;;;;;;;5.97;2.40;;;;;;;;;;5074879;28;20027;-30
2024/02/15 14:56:15;;;;;;;6.20;2.30;;;;;;;;;;5074508;28;20021;-29
2024/02/15 14:58:42;;;;;;;6.10;2.30;;;;;;;;;;5074265;28;20027;-29
2024/02/15 15:01:07;;;;;;;7.60;2.60;;;;;;;;;;5074116;28;20024;-29